Terminal Aerodrome Forecast
Issued by NWS

Home | Current Version | Previous Version | Text Only | Print | Product List | Glossary Off
Versions: 1 2 3 4 5 6 7 8 9 10 11 12 13 14 15 16 17 18 19 20

000
FTUS43 KGRB 142300
TAFCWA
TAF
KCWA 142323Z 1500/1524 34009KT P6SM SCT035
     FM150400 32005KT P6SM SCT250
     FM151500 29010KT P6SM BKN030
     FM152100 26008KT P6SM SCT040
      AMD LTD TO CLD VIS AND WIND 1503/1511=

USA.gov is the U.S. government's official web portal to all federal, state and local government web resources and services.